MMTC/TRC METAR and TAF weather

Enter ICAO airport designator
Station Type Date Time Source
MMTC METAR 2019/10/21 01:43 UTC NOAA

MMTC 210143Z 05002KT 10SM SCT250 28/11 A2982 RMK 8/002


Station Type Date Time Source
MMTC Decoded METAR 2019/10/21 01:43 UTC NOAA

Torreon, Coah., Mexico (MMTC) 25-32N 103-27W 1150M
Oct 20, 2019 - 09:43 PM EDT / 2019.10.21 0143 UTC
Wind: from the NE (050 degrees) at 2 MPH (2 KT):0
Visibility: 10 mile(s):0
Sky conditions: partly cloudy
Temperature: 82 F (28 C)
Dew Point: 51 F (11 C)
Relative Humidity: 34%
Pressure (altimeter): 29.82 in. Hg (1009 hPa)
ob: MMTC 210143Z 05002KT 10SM SCT250 28/11 A2982 RMK 8/002
cycle: 1

Station Type Date Time Source
MMTC TAF 2019/10/20 18:34 UTC NOAA

TAF MMTC 201629Z 2018/2118 07010KT P6SM SCT250
FM210400 20005KT P6SM SCT250
FM211600 34010KT P6SM SCT080 SCT250

Example: see airport list